sensor_id;sensor_type;location;lat;lon;timestamp;temperature;humidity
4813;DHT22;2420;51.202;8.698;2023-02-13T00:00:22;5.90;1.00
4813;DHT22;2420;51.202;8.698;2023-02-13T00:02:48;6.00;1.00
4813;DHT22;2420;51.202;8.698;2023-02-13T00:05:14;5.70;1.00
4813;DHT22;2420;51.202;8.698;2023-02-13T00:07:40;5.80;1.00
4813;DHT22;2420;51.202;8.698;2023-02-13T00:10:06;5.80;1.00
4813;DHT22;2420;51.202;8.698;2023-02-13T00:12:32;6.00;1.00
4813;DHT22;2420;51.202;8.698;2023-02-13T00:14:58;5.70;1.00
4813;DHT22;2420;51.202;8.698;2023-02-13T00:17:24;5.40;1.00
4813;DHT22;2420;51.202;8.698;2023-02-13T00:19:50;5.80;1.00
4813;DHT22;2420;51.202;8.698;2023-02-13T00:22:16;5.80;1.00
4813;DHT22;2420;51.202;8.698;2023-02-13T00:24:42;5.90;1.00
4813;DHT22;2420;51.202;8.698;2023-02-13T00:27:08;5.60;1.00
4813;DHT22;2420;51.202;8.698;2023-02-13T00:29:33;5.70;1.00
4813;DHT22;2420;51.202;8.698;2023-02-13T00:31:59;5.60;1.00
4813;DHT22;2420;51.202;8.698;2023-02-13T00:34:26;5.70;1.00
4813;DHT22;2420;51.202;8.698;2023-02-13T00:36:52;5.80;1.00
4813;DHT22;2420;51.202;8.698;2023-02-13T00:39:17;5.80;1.00
4813;DHT22;2420;51.202;8.698;2023-02-13T00:41:46;5.70;1.00
4813;DHT22;2420;51.202;8.698;2023-02-13T00:44:11;5.50;1.00
4813;DHT22;2420;51.202;8.698;2023-02-13T00:46:37;5.70;1.00
4813;DHT22;2420;51.202;8.698;2023-02-13T00:49:03;5.70;1.00
4813;DHT22;2420;51.202;8.698;2023-02-13T00:51:29;5.60;1.00
4813;DHT22;2420;51.202;8.698;2023-02-13T00:53:54;5.60;1.00
4813;DHT22;2420;51.202;8.698;2023-02-13T00:56:20;5.70;1.00
4813;DHT22;2420;51.202;8.698;2023-02-13T00:58:46;5.60;1.00
4813;DHT22;2420;51.202;8.698;2023-02-13T01:01:11;5.50;1.00
4813;DHT22;2420;51.202;8.698;2023-02-13T01:03:37;5.50;1.00
4813;DHT22;2420;51.202;8.698;2023-02-13T01:06:03;5.60;1.00
4813;DHT22;2420;51.202;8.698;2023-02-13T01:08:29;5.40;1.00
4813;DHT22;2420;51.202;8.698;2023-02-13T01:10:55;5.30;1.00
4813;DHT22;2420;51.202;8.698;2023-02-13T01:13:21;5.40;1.00
4813;DHT22;2420;51.202;8.698;2023-02-13T01:15:47;5.50;1.00
4813;DHT22;2420;51.202;8.698;2023-02-13T01:18:18;5.70;1.00
4813;DHT22;2420;51.202;8.698;2023-02-13T01:20:45;5.40;1.00
4813;DHT22;2420;51.202;8.698;2023-02-13T01:23:20;5.40;1.00
4813;DHT22;2420;51.202;8.698;2023-02-13T01:25:45;5.60;1.00
4813;DHT22;2420;51.202;8.698;2023-02-13T01:28:11;5.40;1.00
4813;DHT22;2420;51.202;8.698;2023-02-13T01:30:36;5.40;1.00
4813;DHT22;2420;51.202;8.698;2023-02-13T01:33:02;5.30;1.00
4813;DHT22;2420;51.202;8.698;2023-02-13T01:35:27;5.30;1.00
4813;DHT22;2420;51.202;8.698;2023-02-13T01:37:53;5.40;1.00
4813;DHT22;2420;51.202;8.698;2023-02-13T01:40:19;5.30;1.00
4813;DHT22;2420;51.202;8.698;2023-02-13T01:42:44;5.20;1.00
4813;DHT22;2420;51.202;8.698;2023-02-13T01:45:39;5.30;1.00
4813;DHT22;2420;51.202;8.698;2023-02-13T01:48:12;5.20;1.00
4813;DHT22;2420;51.202;8.698;2023-02-13T01:53:14;5.40;1.00
4813;DHT22;2420;51.202;8.698;2023-02-13T01:55:51;5.10;1.00
4813;DHT22;2420;51.202;8.698;2023-02-13T01:58:21;5.40;1.00
4813;DHT22;2420;51.202;8.698;2023-02-13T02:00:49;5.10;1.00
4813;DHT22;2420;51.202;8.698;2023-02-13T02:03:26;5.20;1.00
4813;DHT22;2420;51.202;8.698;2023-02-13T02:05:54;5.40;1.00
4813;DHT22;2420;51.202;8.698;2023-02-13T02:08:20;5.10;1.00
4813;DHT22;2420;51.202;8.698;2023-02-13T02:10:46;5.30;1.00
4813;DHT22;2420;51.202;8.698;2023-02-13T02:13:15;5.10;1.00
4813;DHT22;2420;51.202;8.698;2023-02-13T02:15:43;5.30;1.00
4813;DHT22;2420;51.202;8.698;2023-02-13T02:18:20;5.20;1.00
4813;DHT22;2420;51.202;8.698;2023-02-13T02:26:51;5.00;1.00
4813;DHT22;2420;51.202;8.698;2023-02-13T02:29:27;4.90;1.00
4813;DHT22;2420;51.202;8.698;2023-02-13T02:32:14;5.20;1.00
4813;DHT22;2420;51.202;8.698;2023-02-13T02:35:40;5.10;1.00
4813;DHT22;2420;51.202;8.698;2023-02-13T02:38:36;4.90;1.00
4813;DHT22;2420;51.202;8.698;2023-02-13T02:41:29;5.10;1.00
4813;DHT22;2420;51.202;8.698;2023-02-13T02:47:23;5.00;1.00
4813;DHT22;2420;51.202;8.698;2023-02-13T02:53:09;5.10;1.00
4813;DHT22;2420;51.202;8.698;2023-02-13T02:58:44;5.10;1.00
4813;DHT22;2420;51.202;8.698;2023-02-13T03:01:31;5.10;1.00
4813;DHT22;2420;51.202;8.698;2023-02-13T03:04:21;5.00;1.00
4813;DHT22;2420;51.202;8.698;2023-02-13T03:07:08;5.30;1.00
4813;DHT22;2420;51.202;8.698;2023-02-13T03:09:39;5.00;1.00
4813;DHT22;2420;51.202;8.698;2023-02-13T03:12:38;4.90;1.00
4813;DHT22;2420;51.202;8.698;2023-02-13T03:15:25;5.10;1.00
4813;DHT22;2420;51.202;8.698;2023-02-13T03:17:52;5.20;1.00
4813;DHT22;2420;51.202;8.698;2023-02-13T03:35:28;4.90;1.00
4813;DHT22;2420;51.202;8.698;2023-02-13T03:38:19;4.80;1.00
4813;DHT22;2420;51.202;8.698;2023-02-13T03:40:59;4.90;1.00
4813;DHT22;2420;51.202;8.698;2023-02-13T03:44:30;4.70;1.00
4813;DHT22;2420;51.202;8.698;2023-02-13T03:46:59;5.10;1.00
4813;DHT22;2420;51.202;8.698;2023-02-13T03:49:30;4.90;1.00
4813;DHT22;2420;51.202;8.698;2023-02-13T03:55:03;4.90;1.00
4813;DHT22;2420;51.202;8.698;2023-02-13T03:57:51;4.80;1.00
4813;DHT22;2420;51.202;8.698;2023-02-13T04:00:41;5.10;1.00
4813;DHT22;2420;51.202;8.698;2023-02-13T04:05:49;4.80;1.00
4813;DHT22;2420;51.202;8.698;2023-02-13T04:08:16;5.00;1.00
4813;DHT22;2420;51.202;8.698;2023-02-13T04:10:56;4.80;1.00
4813;DHT22;2420;51.202;8.698;2023-02-13T04:13:35;4.90;1.00
4813;DHT22;2420;51.202;8.698;2023-02-13T04:16:26;4.80;1.00
4813;DHT22;2420;51.202;8.698;2023-02-13T04:18:53;4.60;1.00
4813;DHT22;2420;51.202;8.698;2023-02-13T04:21:20;4.60;1.00
4813;DHT22;2420;51.202;8.698;2023-02-13T04:23:45;5.00;1.00
4813;DHT22;2420;51.202;8.698;2023-02-13T04:26:17;4.70;1.00
4813;DHT22;2420;51.202;8.698;2023-02-13T04:28:43;4.90;1.00
4813;DHT22;2420;51.202;8.698;2023-02-13T04:31:09;4.70;1.00
4813;DHT22;2420;51.202;8.698;2023-02-13T04:33:34;4.60;1.00
4813;DHT22;2420;51.202;8.698;2023-02-13T04:36:00;4.80;1.00
4813;DHT22;2420;51.202;8.698;2023-02-13T04:38:25;4.70;1.00
4813;DHT22;2420;51.202;8.698;2023-02-13T04:40:51;4.70;1.00
4813;DHT22;2420;51.202;8.698;2023-02-13T04:43:16;4.70;1.00
4813;DHT22;2420;51.202;8.698;2023-02-13T04:45:42;4.70;1.00
4813;DHT22;2420;51.202;8.698;2023-02-13T04:48:08;4.70;1.00
4813;DHT22;2420;51.202;8.698;2023-02-13T04:50:34;5.00;1.00
4813;DHT22;2420;51.202;8.698;2023-02-13T04:52:59;5.00;1.00
4813;DHT22;2420;51.202;8.698;2023-02-13T04:55:26;4.80;1.00
4813;DHT22;2420;51.202;8.698;2023-02-13T04:57:55;4.80;1.00
4813;DHT22;2420;51.202;8.698;2023-02-13T05:00:23;4.80;1.00
4813;DHT22;2420;51.202;8.698;2023-02-13T05:02:49;4.60;1.00
4813;DHT22;2420;51.202;8.698;2023-02-13T05:05:14;4.60;1.00
4813;DHT22;2420;51.202;8.698;2023-02-13T05:07:41;4.80;1.00
4813;DHT22;2420;51.202;8.698;2023-02-13T05:10:08;4.60;1.00
4813;DHT22;2420;51.202;8.698;2023-02-13T05:12:33;4.70;1.00
4813;DHT22;2420;51.202;8.698;2023-02-13T05:14:59;4.60;1.00
4813;DHT22;2420;51.202;8.698;2023-02-13T05:17:24;4.60;1.00
4813;DHT22;2420;51.202;8.698;2023-02-13T05:19:50;4.70;1.00
4813;DHT22;2420;51.202;8.698;2023-02-13T05:22:15;4.80;1.00
4813;DHT22;2420;51.202;8.698;2023-02-13T05:24:59;4.80;1.00
4813;DHT22;2420;51.202;8.698;2023-02-13T05:27:25;4.70;1.00
4813;DHT22;2420;51.202;8.698;2023-02-13T05:29:50;4.60;1.00
4813;DHT22;2420;51.202;8.698;2023-02-13T05:32:16;4.80;1.00
4813;DHT22;2420;51.202;8.698;2023-02-13T05:34:41;4.80;1.00
4813;DHT22;2420;51.202;8.698;2023-02-13T05:37:07;4.70;1.00
4813;DHT22;2420;51.202;8.698;2023-02-13T05:39:32;4.80;1.00
4813;DHT22;2420;51.202;8.698;2023-02-13T05:41:58;4.60;1.00
4813;DHT22;2420;51.202;8.698;2023-02-13T05:44:23;4.70;1.00
4813;DHT22;2420;51.202;8.698;2023-02-13T05:46:49;4.60;1.00
4813;DHT22;2420;51.202;8.698;2023-02-13T05:49:15;4.90;1.00
4813;DHT22;2420;51.202;8.698;2023-02-13T05:51:41;4.80;1.00
4813;DHT22;2420;51.202;8.698;2023-02-13T05:54:07;4.70;1.00
4813;DHT22;2420;51.202;8.698;2023-02-13T05:56:32;4.90;1.00
4813;DHT22;2420;51.202;8.698;2023-02-13T05:58:58;4.70;1.00
4813;DHT22;2420;51.202;8.698;2023-02-13T06:01:24;4.70;1.00
4813;DHT22;2420;51.202;8.698;2023-02-13T06:03:50;4.70;1.00
4813;DHT22;2420;51.202;8.698;2023-02-13T06:06:16;4.80;1.00
4813;DHT22;2420;51.202;8.698;2023-02-13T06:08:41;4.90;1.00
4813;DHT22;2420;51.202;8.698;2023-02-13T06:11:08;4.90;1.00
4813;DHT22;2420;51.202;8.698;2023-02-13T06:13:33;4.90;1.00
4813;DHT22;2420;51.202;8.698;2023-02-13T06:15:59;4.90;1.00
4813;DHT22;2420;51.202;8.698;2023-02-13T06:18:25;4.90;1.00
4813;DHT22;2420;51.202;8.698;2023-02-13T06:20:50;4.70;1.00
4813;DHT22;2420;51.202;8.698;2023-02-13T06:23:16;4.90;1.00
4813;DHT22;2420;51.202;8.698;2023-02-13T06:25:41;4.80;1.00
4813;DHT22;2420;51.202;8.698;2023-02-13T06:28:07;4.80;1.00
4813;DHT22;2420;51.202;8.698;2023-02-13T06:30:33;4.90;1.00
4813;DHT22;2420;51.202;8.698;2023-02-13T06:32:59;4.90;1.00
4813;DHT22;2420;51.202;8.698;2023-02-13T06:35:25;4.60;1.00
4813;DHT22;2420;51.202;8.698;2023-02-13T06:37:51;4.80;1.00
4813;DHT22;2420;51.202;8.698;2023-02-13T06:40:16;4.60;1.00
4813;DHT22;2420;51.202;8.698;2023-02-13T06:42:43;4.70;1.00
4813;DHT22;2420;51.202;8.698;2023-02-13T06:45:09;5.00;1.00
4813;DHT22;2420;51.202;8.698;2023-02-13T06:47:34;4.80;1.00
4813;DHT22;2420;51.202;8.698;2023-02-13T06:50:00;4.90;1.00
4813;DHT22;2420;51.202;8.698;2023-02-13T06:52:26;4.70;1.00
4813;DHT22;2420;51.202;8.698;2023-02-13T06:54:52;4.90;1.00
4813;DHT22;2420;51.202;8.698;2023-02-13T06:57:17;4.90;1.00
4813;DHT22;2420;51.202;8.698;2023-02-13T06:59:43;4.70;1.00
4813;DHT22;2420;51.202;8.698;2023-02-13T07:02:10;4.70;1.00
4813;DHT22;2420;51.202;8.698;2023-02-13T07:04:35;4.80;1.00
4813;DHT22;2420;51.202;8.698;2023-02-13T07:07:01;5.00;1.00
4813;DHT22;2420;51.202;8.698;2023-02-13T07:09:26;4.80;1.00
4813;DHT22;2420;51.202;8.698;2023-02-13T07:11:52;4.90;1.00
4813;DHT22;2420;51.202;8.698;2023-02-13T07:14:17;5.00;1.00
4813;DHT22;2420;51.202;8.698;2023-02-13T07:16:43;4.80;1.00
4813;DHT22;2420;51.202;8.698;2023-02-13T07:19:08;5.10;1.00
4813;DHT22;2420;51.202;8.698;2023-02-13T07:21:34;4.90;1.00
4813;DHT22;2420;51.202;8.698;2023-02-13T07:24:00;4.90;1.00
4813;DHT22;2420;51.202;8.698;2023-02-13T07:26:26;4.90;1.00
4813;DHT22;2420;51.202;8.698;2023-02-13T07:28:52;5.00;1.00
4813;DHT22;2420;51.202;8.698;2023-02-13T07:31:18;5.00;1.00
4813;DHT22;2420;51.202;8.698;2023-02-13T07:33:43;4.90;1.00
4813;DHT22;2420;51.202;8.698;2023-02-13T07:36:09;4.90;1.00
4813;DHT22;2420;51.202;8.698;2023-02-13T07:38:34;5.00;1.00
4813;DHT22;2420;51.202;8.698;2023-02-13T07:41:01;5.10;1.00
4813;DHT22;2420;51.202;8.698;2023-02-13T07:43:27;4.90;1.00
4813;DHT22;2420;51.202;8.698;2023-02-13T07:45:55;4.90;1.00
4813;DHT22;2420;51.202;8.698;2023-02-13T07:48:23;4.90;1.00
4813;DHT22;2420;51.202;8.698;2023-02-13T07:50:49;4.90;1.00
4813;DHT22;2420;51.202;8.698;2023-02-13T07:53:14;4.90;1.00
4813;DHT22;2420;51.202;8.698;2023-02-13T07:55:40;5.00;1.00
4813;DHT22;2420;51.202;8.698;2023-02-13T07:58:06;5.20;1.00
4813;DHT22;2420;51.202;8.698;2023-02-13T08:00:31;4.90;1.00
4813;DHT22;2420;51.202;8.698;2023-02-13T08:03:00;4.80;1.00
4813;DHT22;2420;51.202;8.698;2023-02-13T08:05:27;5.10;1.00
4813;DHT22;2420;51.202;8.698;2023-02-13T08:07:53;5.20;1.00
4813;DHT22;2420;51.202;8.698;2023-02-13T08:10:19;5.00;1.00
4813;DHT22;2420;51.202;8.698;2023-02-13T08:13:03;5.10;1.00
4813;DHT22;2420;51.202;8.698;2023-02-13T08:15:29;5.00;1.00
4813;DHT22;2420;51.202;8.698;2023-02-13T08:17:55;5.20;1.00
4813;DHT22;2420;51.202;8.698;2023-02-13T08:20:21;5.00;1.00
4813;DHT22;2420;51.202;8.698;2023-02-13T08:22:46;5.30;1.00
4813;DHT22;2420;51.202;8.698;2023-02-13T08:25:12;5.20;1.00
4813;DHT22;2420;51.202;8.698;2023-02-13T08:27:37;5.30;1.00
4813;DHT22;2420;51.202;8.698;2023-02-13T08:30:04;5.30;1.00
4813;DHT22;2420;51.202;8.698;2023-02-13T08:32:29;5.60;1.00
4813;DHT22;2420;51.202;8.698;2023-02-13T08:34:55;5.50;1.00
4813;DHT22;2420;51.202;8.698;2023-02-13T08:37:21;5.50;1.00
4813;DHT22;2420;51.202;8.698;2023-02-13T08:39:46;5.50;1.00
4813;DHT22;2420;51.202;8.698;2023-02-13T08:42:12;5.50;1.00
4813;DHT22;2420;51.202;8.698;2023-02-13T08:44:37;5.80;1.00
4813;DHT22;2420;51.202;8.698;2023-02-13T08:47:05;5.60;1.00
4813;DHT22;2420;51.202;8.698;2023-02-13T08:49:31;5.60;1.00
4813;DHT22;2420;51.202;8.698;2023-02-13T08:51:57;5.60;1.00
4813;DHT22;2420;51.202;8.698;2023-02-13T08:54:22;5.70;1.00
4813;DHT22;2420;51.202;8.698;2023-02-13T08:56:48;5.90;1.00
4813;DHT22;2420;51.202;8.698;2023-02-13T08:59:13;5.90;1.00
4813;DHT22;2420;51.202;8.698;2023-02-13T09:01:39;6.00;1.00
4813;DHT22;2420;51.202;8.698;2023-02-13T09:04:05;5.90;1.00
4813;DHT22;2420;51.202;8.698;2023-02-13T09:06:31;5.90;1.00
4813;DHT22;2420;51.202;8.698;2023-02-13T09:08:56;6.10;1.00
4813;DHT22;2420;51.202;8.698;2023-02-13T09:11:22;5.90;1.00
4813;DHT22;2420;51.202;8.698;2023-02-13T09:13:48;6.10;1.00
4813;DHT22;2420;51.202;8.698;2023-02-13T09:16:14;6.10;1.00
4813;DHT22;2420;51.202;8.698;2023-02-13T09:18:41;6.10;1.00
4813;DHT22;2420;51.202;8.698;2023-02-13T09:21:09;6.00;1.00
4813;DHT22;2420;51.202;8.698;2023-02-13T09:23:37;6.20;1.00
4813;DHT22;2420;51.202;8.698;2023-02-13T09:26:09;6.20;1.00
4813;DHT22;2420;51.202;8.698;2023-02-13T09:28:36;6.20;1.00
4813;DHT22;2420;51.202;8.698;2023-02-13T09:31:19;6.40;1.00
4813;DHT22;2420;51.202;8.698;2023-02-13T09:33:46;6.10;1.00
4813;DHT22;2420;51.202;8.698;2023-02-13T09:36:14;6.60;1.00
4813;DHT22;2420;51.202;8.698;2023-02-13T09:38:42;6.60;1.00
4813;DHT22;2420;51.202;8.698;2023-02-13T09:41:20;6.60;1.00
4813;DHT22;2420;51.202;8.698;2023-02-13T09:44:00;6.80;1.00
4813;DHT22;2420;51.202;8.698;2023-02-13T09:46:34;6.80;1.00
4813;DHT22;2420;51.202;8.698;2023-02-13T09:49:20;6.90;1.00
4813;DHT22;2420;51.202;8.698;2023-02-13T09:51:51;7.00;1.00
4813;DHT22;2420;51.202;8.698;2023-02-13T09:54:18;7.20;1.00
4813;DHT22;2420;51.202;8.698;2023-02-13T09:57:11;7.30;1.00
4813;DHT22;2420;51.202;8.698;2023-02-13T10:16:32;7.10;1.00
4813;DHT22;2420;51.202;8.698;2023-02-13T10:19:01;7.10;1.00
4813;DHT22;2420;51.202;8.698;2023-02-13T10:21:35;7.10;1.00
4813;DHT22;2420;51.202;8.698;2023-02-13T10:24:11;7.10;1.00
4813;DHT22;2420;51.202;8.698;2023-02-13T10:26:40;7.10;1.00
4813;DHT22;2420;51.202;8.698;2023-02-13T10:32:26;7.20;1.00
4813;DHT22;2420;51.202;8.698;2023-02-13T10:34:54;7.20;1.00
4813;DHT22;2420;51.202;8.698;2023-02-13T10:37:21;7.30;1.00
4813;DHT22;2420;51.202;8.698;2023-02-13T10:39:49;7.30;1.00
4813;DHT22;2420;51.202;8.698;2023-02-13T10:42:22;7.30;1.00
4813;DHT22;2420;51.202;8.698;2023-02-13T10:44:54;7.40;1.00
4813;DHT22;2420;51.202;8.698;2023-02-13T10:50:22;7.50;1.00
4813;DHT22;2420;51.202;8.698;2023-02-13T10:53:15;7.60;1.00
4813;DHT22;2420;51.202;8.698;2023-02-13T10:58:52;7.60;1.00
4813;DHT22;2420;51.202;8.698;2023-02-13T11:01:22;7.70;1.00
4813;DHT22;2420;51.202;8.698;2023-02-13T11:04:21;7.80;1.00
4813;DHT22;2420;51.202;8.698;2023-02-13T11:06:57;7.90;1.00
4813;DHT22;2420;51.202;8.698;2023-02-13T11:09:24;7.90;1.00
4813;DHT22;2420;51.202;8.698;2023-02-13T11:11:50;8.00;1.00
4813;DHT22;2420;51.202;8.698;2023-02-13T11:14:21;8.10;1.00
4813;DHT22;2420;51.202;8.698;2023-02-13T11:17:03;8.00;1.00
4813;DHT22;2420;51.202;8.698;2023-02-13T11:19:36;8.20;1.00
4813;DHT22;2420;51.202;8.698;2023-02-13T11:22:16;8.30;1.00
4813;DHT22;2420;51.202;8.698;2023-02-13T11:25:06;8.40;1.00
4813;DHT22;2420;51.202;8.698;2023-02-13T11:27:41;8.40;1.00
4813;DHT22;2420;51.202;8.698;2023-02-13T11:33:22;8.60;1.00
4813;DHT22;2420;51.202;8.698;2023-02-13T11:35:48;8.60;1.00
4813;DHT22;2420;51.202;8.698;2023-02-13T11:41:06;8.70;1.00
4813;DHT22;2420;51.202;8.698;2023-02-13T11:43:35;8.70;1.00
4813;DHT22;2420;51.202;8.698;2023-02-13T11:46:05;8.80;1.00
4813;DHT22;2420;51.202;8.698;2023-02-13T11:48:32;8.90;1.00
4813;DHT22;2420;51.202;8.698;2023-02-13T11:50:58;9.00;1.00
4813;DHT22;2420;51.202;8.698;2023-02-13T11:53:37;8.90;1.00
4813;DHT22;2420;51.202;8.698;2023-02-13T11:56:14;9.00;1.00
4813;DHT22;2420;51.202;8.698;2023-02-13T11:58:40;9.10;1.00
4813;DHT22;2420;51.202;8.698;2023-02-13T12:01:26;9.10;1.00
4813;DHT22;2420;51.202;8.698;2023-02-13T12:04:15;9.10;1.00
4813;DHT22;2420;51.202;8.698;2023-02-13T12:07:00;9.20;1.00
4813;DHT22;2420;51.202;8.698;2023-02-13T12:09:27;9.30;1.00
4813;DHT22;2420;51.202;8.698;2023-02-13T12:11:57;9.40;1.00
4813;DHT22;2420;51.202;8.698;2023-02-13T12:14:28;9.40;1.00
4813;DHT22;2420;51.202;8.698;2023-02-13T12:17:11;9.60;1.00
4813;DHT22;2420;51.202;8.698;2023-02-13T12:19:47;9.60;1.00
4813;DHT22;2420;51.202;8.698;2023-02-13T12:22:38;9.60;1.00
4813;DHT22;2420;51.202;8.698;2023-02-13T12:25:32;9.60;1.00
4813;DHT22;2420;51.202;8.698;2023-02-13T12:28:10;9.70;1.00
4813;DHT22;2420;51.202;8.698;2023-02-13T12:33:56;9.80;1.00
4813;DHT22;2420;51.202;8.698;2023-02-13T12:36:35;9.80;1.00
4813;DHT22;2420;51.202;8.698;2023-02-13T12:47:29;9.90;1.00
4813;DHT22;2420;51.202;8.698;2023-02-13T12:50:17;10.00;1.00
4813;DHT22;2420;51.202;8.698;2023-02-13T12:58:33;10.20;1.00
4813;DHT22;2420;51.202;8.698;2023-02-13T13:04:06;10.20;1.00
4813;DHT22;2420;51.202;8.698;2023-02-13T13:12:25;10.40;1.00
4813;DHT22;2420;51.202;8.698;2023-02-13T13:17:50;10.50;1.00
4813;DHT22;2420;51.202;8.698;2023-02-13T13:20:34;10.50;1.00
4813;DHT22;2420;51.202;8.698;2023-02-13T13:23:28;10.50;1.00
4813;DHT22;2420;51.202;8.698;2023-02-13T13:28:22;10.70;1.00
4813;DHT22;2420;51.202;8.698;2023-02-13T13:30:49;10.70;1.00
4813;DHT22;2420;51.202;8.698;2023-02-13T13:33:20;10.70;1.00
4813;DHT22;2420;51.202;8.698;2023-02-13T13:36:09;10.70;1.00
4813;DHT22;2420;51.202;8.698;2023-02-13T13:38:38;10.60;1.00
4813;DHT22;2420;51.202;8.698;2023-02-13T13:44:09;10.90;1.00
4813;DHT22;2420;51.202;8.698;2023-02-13T13:54:53;11.00;1.00
4813;DHT22;2420;51.202;8.698;2023-02-13T13:57:27;11.10;1.00
4813;DHT22;2420;51.202;8.698;2023-02-13T14:02:42;11.10;1.00
4813;DHT22;2420;51.202;8.698;2023-02-13T14:06:04;11.10;1.00
4813;DHT22;2420;51.202;8.698;2023-02-13T14:11:24;11.10;1.00
4813;DHT22;2420;51.202;8.698;2023-02-13T14:13:50;11.10;1.00
4813;DHT22;2420;51.202;8.698;2023-02-13T14:16:37;11.00;1.00
4813;DHT22;2420;51.202;8.698;2023-02-13T14:19:03;11.00;1.00
4813;DHT22;2420;51.202;8.698;2023-02-13T14:21:29;11.10;1.00
4813;DHT22;2420;51.202;8.698;2023-02-13T14:23:56;11.00;1.00
4813;DHT22;2420;51.202;8.698;2023-02-13T14:26:36;11.00;1.00
4813;DHT22;2420;51.202;8.698;2023-02-13T14:29:26;10.90;1.00
4813;DHT22;2420;51.202;8.698;2023-02-13T14:32:02;11.00;1.00
4813;DHT22;2420;51.202;8.698;2023-02-13T14:34:31;11.10;1.00
4813;DHT22;2420;51.202;8.698;2023-02-13T14:37:20;11.10;1.00
4813;DHT22;2420;51.202;8.698;2023-02-13T14:42:36;10.90;1.00
4813;DHT22;2420;51.202;8.698;2023-02-13T14:45:04;10.90;1.00
4813;DHT22;2420;51.202;8.698;2023-02-13T14:47:41;10.90;1.00
4813;DHT22;2420;51.202;8.698;2023-02-13T14:50:17;10.90;1.00
4813;DHT22;2420;51.202;8.698;2023-02-13T14:52:45;10.90;1.00
4813;DHT22;2420;51.202;8.698;2023-02-13T14:57:47;10.70;1.00
4813;DHT22;2420;51.202;8.698;2023-02-13T15:00:24;10.80;1.00
4813;DHT22;2420;51.202;8.698;2023-02-13T15:03:01;10.80;1.00
4813;DHT22;2420;51.202;8.698;2023-02-13T15:05:33;10.80;1.00
4813;DHT22;2420;51.202;8.698;2023-02-13T15:08:20;10.70;1.00
4813;DHT22;2420;51.202;8.698;2023-02-13T15:10:49;10.70;1.00
4813;DHT22;2420;51.202;8.698;2023-02-13T15:13:17;10.70;1.00
4813;DHT22;2420;51.202;8.698;2023-02-13T15:15:45;10.70;1.00
4813;DHT22;2420;51.202;8.698;2023-02-13T15:18:19;10.60;1.00
4813;DHT22;2420;51.202;8.698;2023-02-13T15:20:46;10.60;1.00
4813;DHT22;2420;51.202;8.698;2023-02-13T15:23:21;10.60;1.00
4813;DHT22;2420;51.202;8.698;2023-02-13T15:25:47;10.50;1.00
4813;DHT22;2420;51.202;8.698;2023-02-13T15:28:22;10.60;1.00
4813;DHT22;2420;51.202;8.698;2023-02-13T15:31:03;10.50;1.00
4813;DHT22;2420;51.202;8.698;2023-02-13T15:33:44;10.50;1.00
4813;DHT22;2420;51.202;8.698;2023-02-13T15:36:18;10.40;1.00
4813;DHT22;2420;51.202;8.698;2023-02-13T15:38:44;10.30;1.00
4813;DHT22;2420;51.202;8.698;2023-02-13T15:41:21;10.20;1.00
4813;DHT22;2420;51.202;8.698;2023-02-13T15:43:50;10.20;1.00
4813;DHT22;2420;51.202;8.698;2023-02-13T15:48:46;10.10;1.00
4813;DHT22;2420;51.202;8.698;2023-02-13T15:51:20;10.10;1.00
4813;DHT22;2420;51.202;8.698;2023-02-13T15:53:58;10.00;1.00
4813;DHT22;2420;51.202;8.698;2023-02-13T15:56:24;10.00;1.00
4813;DHT22;2420;51.202;8.698;2023-02-13T15:58:51;9.80;1.00
4813;DHT22;2420;51.202;8.698;2023-02-13T16:01:17;9.60;1.00
4813;DHT22;2420;51.202;8.698;2023-02-13T16:03:46;9.60;1.00
4813;DHT22;2420;51.202;8.698;2023-02-13T16:06:18;9.40;1.00
4813;DHT22;2420;51.202;8.698;2023-02-13T16:08:50;9.40;1.00
4813;DHT22;2420;51.202;8.698;2023-02-13T16:11:26;9.30;1.00
4813;DHT22;2420;51.202;8.698;2023-02-13T16:16:30;9.10;1.00
4813;DHT22;2420;51.202;8.698;2023-02-13T16:18:57;8.90;1.00
4813;DHT22;2420;51.202;8.698;2023-02-13T16:21:25;8.90;1.00
4813;DHT22;2420;51.202;8.698;2023-02-13T16:23:59;8.80;1.00
4813;DHT22;2420;51.202;8.698;2023-02-13T16:26:26;8.80;1.00
4813;DHT22;2420;51.202;8.698;2023-02-13T16:28:52;8.70;1.00
4813;DHT22;2420;51.202;8.698;2023-02-13T16:31:20;8.50;1.00
4813;DHT22;2420;51.202;8.698;2023-02-13T16:33:46;8.40;1.00
4813;DHT22;2420;51.202;8.698;2023-02-13T16:38:38;8.20;1.00
4813;DHT22;2420;51.202;8.698;2023-02-13T16:41:27;8.10;1.00
4813;DHT22;2420;51.202;8.698;2023-02-13T16:51:43;7.60;1.00
4813;DHT22;2420;51.202;8.698;2023-02-13T16:56:45;7.40;1.00
4813;DHT22;2420;51.202;8.698;2023-02-13T16:59:33;7.30;1.00
4813;DHT22;2420;51.202;8.698;2023-02-13T17:07:24;7.00;1.00
4813;DHT22;2420;51.202;8.698;2023-02-13T17:09:52;6.80;1.00
4813;DHT22;2420;51.202;8.698;2023-02-13T17:12:18;6.70;1.00
4813;DHT22;2420;51.202;8.698;2023-02-13T17:14:44;6.70;1.00
4813;DHT22;2420;51.202;8.698;2023-02-13T17:17:12;6.60;1.00
4813;DHT22;2420;51.202;8.698;2023-02-13T17:19:38;6.50;1.00
4813;DHT22;2420;51.202;8.698;2023-02-13T17:22:03;6.40;1.00
4813;DHT22;2420;51.202;8.698;2023-02-13T17:24:30;6.20;1.00
4813;DHT22;2420;51.202;8.698;2023-02-13T17:26:55;6.10;1.00
4813;DHT22;2420;51.202;8.698;2023-02-13T17:29:21;5.90;1.00
4813;DHT22;2420;51.202;8.698;2023-02-13T17:31:56;5.80;1.00
4813;DHT22;2420;51.202;8.698;2023-02-13T17:34:22;5.70;1.00
4813;DHT22;2420;51.202;8.698;2023-02-13T17:36:47;5.60;1.00
4813;DHT22;2420;51.202;8.698;2023-02-13T17:39:12;5.50;1.00
4813;DHT22;2420;51.202;8.698;2023-02-13T17:41:38;5.30;1.00
4813;DHT22;2420;51.202;8.698;2023-02-13T17:44:08;5.50;1.00
4813;DHT22;2420;51.202;8.698;2023-02-13T17:46:36;5.30;1.00
4813;DHT22;2420;51.202;8.698;2023-02-13T17:49:01;5.40;1.00
4813;DHT22;2420;51.202;8.698;2023-02-13T17:51:29;5.10;1.00
4813;DHT22;2420;51.202;8.698;2023-02-13T17:53:55;5.20;1.00
4813;DHT22;2420;51.202;8.698;2023-02-13T17:56:20;5.10;1.00
4813;DHT22;2420;51.202;8.698;2023-02-13T17:58:46;5.20;1.00
4813;DHT22;2420;51.202;8.698;2023-02-13T18:01:11;5.40;1.00
4813;DHT22;2420;51.202;8.698;2023-02-13T18:03:37;5.30;1.00
4813;DHT22;2420;51.202;8.698;2023-02-13T18:06:04;5.30;1.00
4813;DHT22;2420;51.202;8.698;2023-02-13T18:08:29;5.00;1.00
4813;DHT22;2420;51.202;8.698;2023-02-13T18:10:55;5.30;1.00
4813;DHT22;2420;51.202;8.698;2023-02-13T18:13:20;4.80;1.00
4813;DHT22;2420;51.202;8.698;2023-02-13T18:15:46;4.70;1.00
4813;DHT22;2420;51.202;8.698;2023-02-13T18:18:13;4.90;1.00
4813;DHT22;2420;51.202;8.698;2023-02-13T18:20:40;4.80;1.00
4813;DHT22;2420;51.202;8.698;2023-02-13T18:23:06;4.70;1.00
4813;DHT22;2420;51.202;8.698;2023-02-13T18:25:32;4.50;1.00
4813;DHT22;2420;51.202;8.698;2023-02-13T18:27:58;4.60;1.00
4813;DHT22;2420;51.202;8.698;2023-02-13T18:30:23;4.40;1.00
4813;DHT22;2420;51.202;8.698;2023-02-13T18:32:54;4.40;1.00
4813;DHT22;2420;51.202;8.698;2023-02-13T18:35:21;4.50;1.00
4813;DHT22;2420;51.202;8.698;2023-02-13T18:37:46;4.30;1.00
4813;DHT22;2420;51.202;8.698;2023-02-13T18:40:13;4.30;1.00
4813;DHT22;2420;51.202;8.698;2023-02-13T18:42:39;4.20;1.00
4813;DHT22;2420;51.202;8.698;2023-02-13T18:45:05;4.00;1.00
4813;DHT22;2420;51.202;8.698;2023-02-13T18:47:31;4.10;1.00
4813;DHT22;2420;51.202;8.698;2023-02-13T18:49:56;4.10;1.00
4813;DHT22;2420;51.202;8.698;2023-02-13T18:52:22;3.90;1.00
4813;DHT22;2420;51.202;8.698;2023-02-13T18:54:47;3.90;1.00
4813;DHT22;2420;51.202;8.698;2023-02-13T18:57:13;3.90;1.00
4813;DHT22;2420;51.202;8.698;2023-02-13T18:59:38;3.90;1.00
4813;DHT22;2420;51.202;8.698;2023-02-13T19:02:04;3.70;1.00
4813;DHT22;2420;51.202;8.698;2023-02-13T19:04:29;3.70;1.00
4813;DHT22;2420;51.202;8.698;2023-02-13T19:06:55;3.40;1.00
4813;DHT22;2420;51.202;8.698;2023-02-13T19:09:20;3.70;1.00
4813;DHT22;2420;51.202;8.698;2023-02-13T19:11:46;3.60;1.00
4813;DHT22;2420;51.202;8.698;2023-02-13T19:14:13;3.40;1.00
4813;DHT22;2420;51.202;8.698;2023-02-13T19:16:39;3.40;1.00
4813;DHT22;2420;51.202;8.698;2023-02-13T19:19:06;3.40;1.00